createdAt,value
2018-12-31T00:01:47.916Z,33.03
2018-12-31T00:04:16.396Z,37.07
2018-12-31T00:06:44.584Z,31.90
2018-12-31T00:09:12.708Z,37.63
2018-12-31T00:11:41.354Z,37.60
2018-12-31T00:14:10.209Z,33.70
2018-12-31T00:16:38.399Z,30.27
2018-12-31T00:19:06.670Z,33.10
2018-12-31T00:21:35.369Z,39.73
2018-12-31T00:24:03.529Z,36.63
2018-12-31T00:26:50.854Z,37.33
2018-12-31T00:29:19.041Z,34.27
2018-12-31T00:31:48.220Z,36.63
2018-12-31T00:34:25.130Z,31.70
2018-12-31T00:37:22.932Z,37.13
2018-12-31T00:39:51.502Z,34.70
2018-12-31T00:42:19.667Z,34.23
2018-12-31T00:44:48.840Z,32.03
2018-12-31T00:47:24.999Z,30.03
2018-12-31T00:49:56.105Z,31.20
2018-12-31T00:52:44.557Z,34.20
2018-12-31T00:55:17.368Z,31.93
2018-12-31T00:57:50.220Z,38.10
2018-12-31T01:00:21.077Z,37.10
2018-12-31T01:02:49.254Z,31.10
2018-12-31T01:05:17.417Z,34.90
2018-12-31T01:07:45.899Z,34.13
2018-12-31T01:10:15.110Z,36.47
2018-12-31T01:12:43.340Z,39.43
2018-12-31T01:15:11.441Z,33.57
2018-12-31T01:17:39.614Z,35.87
2018-12-31T01:20:07.784Z,38.93
2018-12-31T01:22:35.962Z,33.13
2018-12-31T01:25:04.241Z,33.40
2018-12-31T01:27:33.421Z,37.07
2018-12-31T01:30:01.613Z,40.50
2018-12-31T01:32:29.784Z,37.23
2018-12-31T01:34:57.965Z,39.40
2018-12-31T01:37:26.095Z,45.63
2018-12-31T01:39:55.519Z,37.00
2018-12-31T01:42:25.015Z,42.03
2018-12-31T01:44:54.236Z,41.10
2018-12-31T01:47:22.407Z,44.47
2018-12-31T01:49:50.561Z,40.53
2018-12-31T01:52:18.752Z,41.43
2018-12-31T01:54:46.924Z,42.50
2018-12-31T01:57:15.410Z,45.17
2018-12-31T01:59:43.579Z,47.37
2018-12-31T02:02:12.772Z,39.27
2018-12-31T02:04:42.958Z,45.10
2018-12-31T02:07:11.073Z,48.43
2018-12-31T02:09:41.603Z,41.00
2018-12-31T02:12:10.073Z,39.43
2018-12-31T02:14:38.245Z,41.87
2018-12-31T02:17:27.634Z,37.10
2018-12-31T02:20:15.102Z,37.70
2018-12-31T02:23:35.846Z,41.53
2018-12-31T02:26:04.938Z,38.40
2018-12-31T02:28:34.383Z,38.23
2018-12-31T02:31:02.517Z,33.73
2018-12-31T02:33:32.741Z,36.80
2018-12-31T02:36:00.917Z,37.20
2018-12-31T02:38:29.325Z,32.53
2018-12-31T02:40:57.710Z,33.10
2018-12-31T02:43:25.837Z,36.57
2018-12-31T02:45:53.989Z,30.20
2018-12-31T02:48:22.206Z,37.53
2018-12-31T02:50:51.385Z,33.80
2018-12-31T02:53:19.555Z,33.60
2018-12-31T02:55:48.102Z,30.60
2018-12-31T02:58:17.233Z,31.03
2018-12-31T03:00:45.720Z,31.63
2018-12-31T03:03:13.789Z,29.50
2018-12-31T03:05:41.969Z,26.47
2018-12-31T03:08:11.168Z,29.60
2018-12-31T03:10:40.352Z,26.60
2018-12-31T03:13:08.523Z,26.73
2018-12-31T03:15:36.687Z,28.97
2018-12-31T03:18:05.457Z,29.13
2018-12-31T03:20:33.660Z,27.23
2018-12-31T03:23:01.834Z,29.10
2018-12-31T03:25:31.039Z,28.27
2018-12-31T03:27:59.511Z,31.93
2018-12-31T03:30:27.803Z,35.40
2018-12-31T03:32:56.978Z,32.00
2018-12-31T03:35:25.385Z,36.57
2018-12-31T03:37:54.791Z,32.77
2018-12-31T03:40:24.221Z,31.53
2018-12-31T03:42:52.315Z,31.20
2018-12-31T03:45:21.550Z,37.43
2018-12-31T03:47:49.727Z,32.43
2018-12-31T03:50:17.896Z,29.63
2018-12-31T03:52:46.054Z,37.40
2018-12-31T03:55:14.241Z,35.33
2018-12-31T03:57:42.393Z,30.93
2018-12-31T04:00:10.611Z,27.37
2018-12-31T04:02:39.763Z,28.33
2018-12-31T04:05:07.967Z,34.53
2018-12-31T04:07:36.140Z,33.07
2018-12-31T04:10:05.340Z,31.20
2018-12-31T04:12:33.762Z,27.63
2018-12-31T04:15:01.990Z,29.47
2018-12-31T04:17:30.272Z,31.07
2018-12-31T04:20:02.837Z,30.43
2018-12-31T04:22:31.002Z,33.10
2018-12-31T04:24:59.483Z,32.70
2018-12-31T04:27:27.894Z,27.70
2018-12-31T04:29:56.033Z,26.30
2018-12-31T04:32:28.469Z,26.70
2018-12-31T04:34:56.684Z,27.00
2018-12-31T04:37:25.847Z,23.77
2018-12-31T04:39:54.050Z,26.47
2018-12-31T04:42:22.209Z,23.60
2018-12-31T04:44:51.430Z,26.53
2018-12-31T04:47:19.600Z,23.33
2018-12-31T04:49:49.800Z,24.57
2018-12-31T04:52:17.991Z,27.57
2018-12-31T04:54:46.172Z,23.27
2018-12-31T04:57:15.360Z,24.70
2018-12-31T04:59:43.535Z,25.57
2018-12-31T05:02:11.982Z,24.20
2018-12-31T05:04:42.142Z,23.63
2018-12-31T05:07:11.344Z,28.40
2018-12-31T05:09:40.535Z,23.13
2018-12-31T05:12:08.723Z,24.60
2018-12-31T05:14:36.893Z,24.80
2018-12-31T05:17:06.364Z,24.07
2018-12-31T05:19:34.832Z,24.87
2018-12-31T05:22:03.358Z,25.40
2018-12-31T05:24:31.512Z,26.23
2018-12-31T05:27:00.681Z,27.27
2018-12-31T05:29:28.781Z,25.53
2018-12-31T05:31:57.982Z,32.20
2018-12-31T05:34:26.384Z,26.00
2018-12-31T05:36:54.532Z,22.70
2018-12-31T05:39:23.714Z,27.43
2018-12-31T05:41:52.953Z,23.07
2018-12-31T05:44:21.100Z,21.20
2018-12-31T05:46:49.539Z,28.43
2018-12-31T05:49:17.751Z,23.20
2018-12-31T05:51:45.963Z,23.13
2018-12-31T05:54:14.150Z,21.93
2018-12-31T05:56:42.266Z,23.60
2018-12-31T05:59:10.445Z,20.27
2018-12-31T06:01:38.626Z,22.83
2018-12-31T06:04:06.776Z,26.90
2018-12-31T06:06:36.005Z,23.47
2018-12-31T06:09:07.553Z,24.33
2018-12-31T06:11:35.712Z,21.20
2018-12-31T06:14:03.883Z,21.73
2018-12-31T06:16:32.066Z,18.17
2018-12-31T06:19:01.158Z,25.13
2018-12-31T06:21:29.302Z,21.67
2018-12-31T06:23:57.505Z,20.30
2018-12-31T06:26:25.626Z,20.03
2018-12-31T06:28:53.861Z,19.47
2018-12-31T06:31:22.241Z,21.50
2018-12-31T06:33:50.409Z,19.63
2018-12-31T06:36:19.611Z,19.40
2018-12-31T06:38:48.040Z,20.60
2018-12-31T06:41:16.251Z,18.80
2018-12-31T06:43:44.420Z,17.53
2018-12-31T06:46:12.814Z,18.17
2018-12-31T06:48:40.973Z,17.83
2018-12-31T06:51:10.170Z,16.97
2018-12-31T06:53:38.344Z,17.60
2018-12-31T06:56:06.505Z,17.97
2018-12-31T06:58:34.719Z,19.47
2018-12-31T07:01:02.925Z,22.60
2018-12-31T07:03:32.899Z,18.17
2018-12-31T07:06:01.876Z,19.87
2018-12-31T07:08:30.117Z,19.93
2018-12-31T07:10:58.222Z,19.37
2018-12-31T07:13:26.667Z,20.13
2018-12-31T07:15:55.145Z,20.87
2018-12-31T07:18:24.277Z,19.23
2018-12-31T07:20:52.458Z,19.13
2018-12-31T07:23:21.903Z,17.07
2018-12-31T07:25:52.076Z,20.83
2018-12-31T07:28:20.181Z,21.27
2018-12-31T07:30:48.291Z,20.97
2018-12-31T07:33:18.440Z,24.10
2018-12-31T07:36:17.805Z,20.77
2018-12-31T07:38:46.950Z,19.50
2018-12-31T07:41:15.347Z,16.43
2018-12-31T07:43:47.750Z,18.37
2018-12-31T07:46:15.835Z,13.83
2018-12-31T07:48:44.031Z,17.57
2018-12-31T07:51:12.205Z,19.27
2018-12-31T07:53:40.381Z,17.67
2018-12-31T07:56:08.561Z,15.30
2018-12-31T07:58:36.727Z,17.07
2018-12-31T08:01:04.909Z,15.20
2018-12-31T08:03:39.838Z,13.30
2018-12-31T08:06:09.056Z,15.93
2018-12-31T08:08:38.256Z,15.00
2018-12-31T08:11:08.728Z,12.93
2018-12-31T08:13:39.187Z,19.57
2018-12-31T08:16:08.648Z,15.33
2018-12-31T08:18:37.120Z,15.87
2018-12-31T08:21:06.276Z,14.17
2018-12-31T08:23:35.485Z,14.30
2018-12-31T08:26:04.914Z,16.27
2018-12-31T08:28:37.622Z,11.77
2018-12-31T08:31:15.959Z,10.70
2018-12-31T08:33:45.156Z,14.43
2018-12-31T08:36:13.331Z,12.23
2018-12-31T08:38:41.528Z,8.53
2018-12-31T08:41:11.726Z,10.08
2018-12-31T08:43:41.185Z,11.83
2018-12-31T08:46:09.694Z,9.93
2018-12-31T08:48:37.902Z,10.07
2018-12-31T08:51:07.074Z,9.30
2018-12-31T08:53:35.250Z,7.37
2018-12-31T08:56:05.860Z,7.90
2018-12-31T08:58:34.987Z,10.27
2018-12-31T09:01:04.203Z,9.83
2018-12-31T09:03:35.518Z,8.77
2018-12-31T09:06:03.899Z,7.47
2018-12-31T09:08:32.125Z,7.47
2018-12-31T09:11:01.275Z,8.43
2018-12-31T09:13:30.561Z,8.23
2018-12-31T09:16:02.227Z,8.97
2018-12-31T09:18:30.706Z,9.57
2018-12-31T09:21:02.283Z,8.43
2018-12-31T09:23:30.717Z,7.70
2018-12-31T09:26:00.849Z,7.83
2018-12-31T09:28:29.125Z,7.23
2018-12-31T09:30:59.247Z,7.87
2018-12-31T09:33:30.837Z,7.87
2018-12-31T09:35:58.960Z,8.67
2018-12-31T09:38:27.201Z,7.07
2018-12-31T09:40:56.359Z,7.70
2018-12-31T09:43:25.574Z,6.55
2018-12-31T09:45:53.851Z,6.45
2018-12-31T09:48:21.990Z,7.33
2018-12-31T09:50:51.422Z,5.90
2018-12-31T09:53:20.660Z,7.63
2018-12-31T09:55:49.791Z,7.80
2018-12-31T09:58:18.989Z,6.13
2018-12-31T10:00:48.209Z,7.03
2018-12-31T10:03:22.098Z,5.83
2018-12-31T10:06:05.287Z,6.30
2018-12-31T10:11:38.456Z,7.23
2018-12-31T10:14:12.551Z,5.80
2018-12-31T10:17:00.253Z,6.87
2018-12-31T10:19:28.856Z,7.23
2018-12-31T10:21:57.044Z,7.07
2018-12-31T10:24:25.210Z,6.70
2018-12-31T10:26:58.387Z,8.07
2018-12-31T10:29:26.568Z,6.70
2018-12-31T10:31:54.751Z,7.17
2018-12-31T10:34:22.854Z,8.13
2018-12-31T10:36:51.017Z,7.17
2018-12-31T10:39:19.224Z,6.90
2018-12-31T10:41:47.847Z,7.53
2018-12-31T10:44:19.319Z,7.30
2018-12-31T10:46:51.893Z,7.80
2018-12-31T10:49:21.337Z,9.13
2018-12-31T10:51:49.848Z,8.10
2018-12-31T10:54:19.317Z,8.47
2018-12-31T10:56:47.533Z,11.37
2018-12-31T10:59:15.699Z,10.03
2018-12-31T11:01:43.880Z,10.30
2018-12-31T11:04:12.469Z,12.20
2018-12-31T11:06:40.652Z,11.90
2018-12-31T11:09:08.846Z,10.07
2018-12-31T11:11:37.008Z,11.33
2018-12-31T11:14:06.200Z,8.17
2018-12-31T11:16:36.435Z,10.00
2018-12-31T11:19:04.564Z,11.37
2018-12-31T11:21:32.789Z,8.40
2018-12-31T11:24:01.490Z,8.93
2018-12-31T11:26:31.703Z,11.70
2018-12-31T11:29:00.173Z,7.03
2018-12-31T11:31:30.530Z,7.87
2018-12-31T11:33:57.484Z,7.57
2018-12-31T11:36:25.861Z,7.50
2018-12-31T11:38:54.367Z,8.13
2018-12-31T11:41:22.812Z,8.63
2018-12-31T11:43:51.064Z,7.77
2018-12-31T11:46:23.290Z,8.30
2018-12-31T11:48:51.461Z,7.47
2018-12-31T11:51:19.617Z,6.97
2018-12-31T11:53:47.894Z,6.87
2018-12-31T11:56:15.962Z,6.80
2018-12-31T11:58:44.234Z,7.10
2018-12-31T12:01:13.377Z,6.40
2018-12-31T12:03:41.540Z,6.10
2018-12-31T12:06:09.663Z,6.00
2018-12-31T12:08:38.831Z,6.33
2018-12-31T12:11:09.389Z,6.80
2018-12-31T12:13:37.850Z,6.07
2018-12-31T12:16:06.229Z,5.83
2018-12-31T12:18:34.452Z,6.37
2018-12-31T12:21:03.660Z,6.10
2018-12-31T12:23:31.852Z,5.40
2018-12-31T12:26:00.014Z,5.63
2018-12-31T12:28:28.459Z,5.80
2018-12-31T12:30:56.659Z,6.13
2018-12-31T12:33:24.816Z,6.67
2018-12-31T12:35:54.066Z,6.40
2018-12-31T12:38:22.255Z,6.53
2018-12-31T12:40:51.403Z,6.67
2018-12-31T12:43:19.573Z,7.50
2018-12-31T12:45:47.787Z,6.03
2018-12-31T12:48:16.198Z,7.53
2018-12-31T12:50:44.659Z,6.63
2018-12-31T12:53:13.150Z,6.40
2018-12-31T12:55:41.263Z,8.63
2018-12-31T12:58:09.427Z,10.57
2018-12-31T13:00:38.635Z,6.70
2018-12-31T13:03:06.799Z,7.87
2018-12-31T13:05:36.091Z,7.13
2018-12-31T13:08:04.309Z,8.00
2018-12-31T13:10:32.455Z,8.40
2018-12-31T13:13:00.868Z,9.23
2018-12-31T13:15:30.030Z,9.47
2018-12-31T13:17:58.253Z,14.63
2018-12-31T13:20:26.381Z,9.33
2018-12-31T13:22:54.549Z,13.50
2018-12-31T13:25:22.779Z,14.03
2018-12-31T13:27:51.009Z,9.87
